Архив погоды в Донецке за Октябрь, 2018 год

icon
Год:Все20022003200420052006200720082009201020112012201320142015201620172018
Месяц:ЯнварьФевральМартАпрельМайИюньИюльАвгустСентябрьОктябрьНоябрьДекабрь
Дата Облачность Температура (д/н), °C Давление, мм Влажность, % Ветер, м/с
01.10.2018 Облачность ясно +20 / +14 740 46 В, 5
02.10.2018 Облачность ясно +22 / +15 737 60 З, 4
03.10.2018 Облачность пасмурно +20 / +9 734 63 Ю-З, 5
04.10.2018 Облачность пасмурно +13 / +6 737 50 З, 4
05.10.2018 Облачность ясно +12 / +3 746 33 С-З, 3
06.10.2018 Облачность ясно +16 / +4 749 29 Ю-З, 2
07.10.2018 Облачность ясно +19 / +6 744 18 В, 3
08.10.2018 Облачность ясно +19 / +8 740 47 В, 3
09.10.2018 Облачность ясно +21 / +9 743 43 С-В, 2
10.10.2018 Облачность ясно +21 / +9 745 37 С-В, 2
11.10.2018 Облачность ясно +21 / +10 744 32 С, 2
12.10.2018 Облачность ясно +17 / +5 750 26 С-В, 5
13.10.2018 Облачность ясно +17 / +8 749 28 В, 4
14.10.2018 Облачность ясно +21 / +9 746 22 С, 3
15.10.2018 Облачность ясно +23 / +11 746 32 С-В, 2
16.10.2018 Облачность ясно +23 / +11 746 42 В, 3
17.10.2018 Облачность ясно +22 / +11 745 40 В, 3
18.10.2018 Облачность ясно +22 / +11 743 28 В, 4
19.10.2018 Облачность ясно +21 / +9 739 44 Ю-В, 4
20.10.2018 Облачность ясно +20 / +9 737 51 С, 1
21.10.2018 Облачность пасмурно +14 / +11 739 80 С-В, 2
22.10.2018 Облачность дождь +13 / +9 743 96 С, 3
23.10.2018 Облачность пасмурно +14 / +9 741 40 З, 5
24.10.2018 Облачность дождь +13 / +9 728 74 Ю, 5
25.10.2018 Облачность дождь +8 / +4 730 56 З, 6
26.10.2018 Облачность пасмурно +8 / +1 740 46 З, 4
27.10.2018 Облачность пасмурно +12 / +9 748 55 Ю-З, 3
28.10.2018 Облачность ясно +17 / +10 749 58 Ю, 5
29.10.2018 Облачность ясно +18 / +6 752 52 Ю, 3
30.10.2018 Облачность ясно +18 / +6 752 35 В, 2
31.10.2018 Облачность ясно +19 / +9 754 34 В, 2
icon
Облачность:дождь дождь
Темп. днем:12..14 °C
Темп. ночью:8..10 °C
Давление:743 мм
Влажность:96 %
Ветер:С, 3 м/с
icon
USDusd28,18(+0,00000)
RUBrub0,43(+0,00000)
EUReur32,32(+0,00000)
icon
Пн. 22 Октябрь 2018
icon
Логин:
Код: ---
 
Реклама
icon